sensor_id;sensor_type;location;lat;lon;timestamp;temperature;humidity
66708;DHT22;53622;0.000;0.000;2023-09-07T00:01:01;24.10;55.70
66708;DHT22;53622;0.000;0.000;2023-09-07T00:03:33;24.10;55.90
66708;DHT22;53622;0.000;0.000;2023-09-07T00:06:07;24.10;56.00
66708;DHT22;53622;0.000;0.000;2023-09-07T00:08:36;24.00;55.90
66708;DHT22;53622;0.000;0.000;2023-09-07T00:11:05;24.00;56.00
66708;DHT22;53622;0.000;0.000;2023-09-07T00:13:34;23.90;56.10
66708;DHT22;53622;0.000;0.000;2023-09-07T00:16:04;23.90;56.10
66708;DHT22;53622;0.000;0.000;2023-09-07T00:18:35;23.90;56.10
66708;DHT22;53622;0.000;0.000;2023-09-07T00:21:03;23.90;56.10
66708;DHT22;53622;0.000;0.000;2023-09-07T00:23:32;23.90;56.20
66708;DHT22;53622;0.000;0.000;2023-09-07T00:26:01;23.90;56.20
66708;DHT22;53622;0.000;0.000;2023-09-07T00:28:30;23.80;56.20
66708;DHT22;53622;0.000;0.000;2023-09-07T00:30:59;23.80;56.20
66708;DHT22;53622;0.000;0.000;2023-09-07T00:33:28;23.80;56.10
66708;DHT22;53622;0.000;0.000;2023-09-07T00:36:01;23.80;56.40
66708;DHT22;53622;0.000;0.000;2023-09-07T00:38:30;23.80;56.40
66708;DHT22;53622;0.000;0.000;2023-09-07T00:40:59;23.70;56.30
66708;DHT22;53622;0.000;0.000;2023-09-07T00:43:28;23.70;56.40
66708;DHT22;53622;0.000;0.000;2023-09-07T00:45:57;23.70;56.50
66708;DHT22;53622;0.000;0.000;2023-09-07T00:48:26;23.70;56.70
66708;DHT22;53622;0.000;0.000;2023-09-07T00:50:56;23.70;56.70
66708;DHT22;53622;0.000;0.000;2023-09-07T00:53:27;23.70;56.60
66708;DHT22;53622;0.000;0.000;2023-09-07T00:55:56;23.70;56.70
66708;DHT22;53622;0.000;0.000;2023-09-07T00:58:26;23.70;56.70
66708;DHT22;53622;0.000;0.000;2023-09-07T01:00:56;23.70;56.90
66708;DHT22;53622;0.000;0.000;2023-09-07T01:03:25;23.60;56.90
66708;DHT22;53622;0.000;0.000;2023-09-07T01:05:58;23.60;57.00
66708;DHT22;53622;0.000;0.000;2023-09-07T01:08:33;23.60;56.90
66708;DHT22;53622;0.000;0.000;2023-09-07T01:11:13;23.60;57.10
66708;DHT22;53622;0.000;0.000;2023-09-07T01:13:43;23.60;57.40
66708;DHT22;53622;0.000;0.000;2023-09-07T01:16:13;23.50;57.80
66708;DHT22;53622;0.000;0.000;2023-09-07T01:18:42;23.50;58.00
66708;DHT22;53622;0.000;0.000;2023-09-07T01:21:12;23.40;57.90
66708;DHT22;53622;0.000;0.000;2023-09-07T01:23:43;23.40;57.90
66708;DHT22;53622;0.000;0.000;2023-09-07T01:26:13;23.30;57.80
66708;DHT22;53622;0.000;0.000;2023-09-07T01:28:42;23.30;57.80
66708;DHT22;53622;0.000;0.000;2023-09-07T01:31:11;23.30;57.90
66708;DHT22;53622;0.000;0.000;2023-09-07T01:33:40;23.30;58.00
66708;DHT22;53622;0.000;0.000;2023-09-07T01:36:09;23.30;58.20
66708;DHT22;53622;0.000;0.000;2023-09-07T01:38:38;23.30;58.80
66708;DHT22;53622;0.000;0.000;2023-09-07T01:41:08;23.30;58.30
66708;DHT22;53622;0.000;0.000;2023-09-07T01:43:38;23.20;58.40
66708;DHT22;53622;0.000;0.000;2023-09-07T01:46:07;23.20;58.40
66708;DHT22;53622;0.000;0.000;2023-09-07T01:48:37;23.20;58.50
66708;DHT22;53622;0.000;0.000;2023-09-07T01:51:06;23.10;58.50
66708;DHT22;53622;0.000;0.000;2023-09-07T01:53:35;23.10;58.80
66708;DHT22;53622;0.000;0.000;2023-09-07T01:56:04;23.10;58.90
66708;DHT22;53622;0.000;0.000;2023-09-07T01:58:34;23.10;58.80
66708;DHT22;53622;0.000;0.000;2023-09-07T02:01:04;23.10;58.70
66708;DHT22;53622;0.000;0.000;2023-09-07T02:03:33;23.00;58.80
66708;DHT22;53622;0.000;0.000;2023-09-07T02:06:03;23.00;58.70
66708;DHT22;53622;0.000;0.000;2023-09-07T02:08:32;23.00;58.80
66708;DHT22;53622;0.000;0.000;2023-09-07T02:11:00;23.00;58.90
66708;DHT22;53622;0.000;0.000;2023-09-07T02:13:30;23.00;59.00
66708;DHT22;53622;0.000;0.000;2023-09-07T02:16:03;23.00;59.20
66708;DHT22;53622;0.000;0.000;2023-09-07T02:18:35;22.90;59.50
66708;DHT22;53622;0.000;0.000;2023-09-07T02:21:04;22.90;59.80
66708;DHT22;53622;0.000;0.000;2023-09-07T02:23:33;22.80;60.00
66708;DHT22;53622;0.000;0.000;2023-09-07T02:26:03;22.80;60.20
66708;DHT22;53622;0.000;0.000;2023-09-07T02:28:32;22.80;60.10
66708;DHT22;53622;0.000;0.000;2023-09-07T02:31:06;22.90;60.40
66708;DHT22;53622;0.000;0.000;2023-09-07T02:33:35;22.90;60.30
66708;DHT22;53622;0.000;0.000;2023-09-07T02:36:05;22.80;60.30
66708;DHT22;53622;0.000;0.000;2023-09-07T02:38:33;22.80;60.40
66708;DHT22;53622;0.000;0.000;2023-09-07T02:41:02;22.80;60.50
66708;DHT22;53622;0.000;0.000;2023-09-07T02:43:31;22.80;60.70
66708;DHT22;53622;0.000;0.000;2023-09-07T02:46:00;22.80;60.70
66708;DHT22;53622;0.000;0.000;2023-09-07T02:48:31;22.80;61.00
66708;DHT22;53622;0.000;0.000;2023-09-07T02:51:00;22.80;61.00
66708;DHT22;53622;0.000;0.000;2023-09-07T02:53:29;22.80;61.30
66708;DHT22;53622;0.000;0.000;2023-09-07T02:55:58;22.80;61.50
66708;DHT22;53622;0.000;0.000;2023-09-07T02:58:30;22.70;61.60
66708;DHT22;53622;0.000;0.000;2023-09-07T03:01:00;22.70;61.60
66708;DHT22;53622;0.000;0.000;2023-09-07T03:03:30;22.70;61.70
66708;DHT22;53622;0.000;0.000;2023-09-07T03:06:07;22.70;62.10
66708;DHT22;53622;0.000;0.000;2023-09-07T03:08:37;22.60;62.30
66708;DHT22;53622;0.000;0.000;2023-09-07T03:11:06;22.60;62.50
66708;DHT22;53622;0.000;0.000;2023-09-07T03:13:36;22.60;62.60
66708;DHT22;53622;0.000;0.000;2023-09-07T03:16:05;22.60;62.80
66708;DHT22;53622;0.000;0.000;2023-09-07T03:18:35;22.50;62.70
66708;DHT22;53622;0.000;0.000;2023-09-07T03:21:04;22.50;62.50
66708;DHT22;53622;0.000;0.000;2023-09-07T03:23:33;22.50;62.30
66708;DHT22;53622;0.000;0.000;2023-09-07T03:26:03;22.50;62.30
66708;DHT22;53622;0.000;0.000;2023-09-07T03:28:32;22.40;62.40
66708;DHT22;53622;0.000;0.000;2023-09-07T03:31:02;22.50;62.60
66708;DHT22;53622;0.000;0.000;2023-09-07T03:33:32;22.40;62.40
66708;DHT22;53622;0.000;0.000;2023-09-07T03:36:03;22.50;62.70
66708;DHT22;53622;0.000;0.000;2023-09-07T03:38:32;22.50;63.30
66708;DHT22;53622;0.000;0.000;2023-09-07T03:41:01;22.50;62.70
66708;DHT22;53622;0.000;0.000;2023-09-07T03:43:30;22.50;62.60
66708;DHT22;53622;0.000;0.000;2023-09-07T03:45:59;22.50;62.70
66708;DHT22;53622;0.000;0.000;2023-09-07T03:48:28;22.50;62.80
66708;DHT22;53622;0.000;0.000;2023-09-07T03:50:58;22.50;62.60
66708;DHT22;53622;0.000;0.000;2023-09-07T03:53:28;22.40;62.60
66708;DHT22;53622;0.000;0.000;2023-09-07T03:55:57;22.40;62.50
66708;DHT22;53622;0.000;0.000;2023-09-07T03:58:27;22.40;62.40
66708;DHT22;53622;0.000;0.000;2023-09-07T04:00:58;22.40;62.50
66708;DHT22;53622;0.000;0.000;2023-09-07T04:03:29;22.40;62.50
66708;DHT22;53622;0.000;0.000;2023-09-07T04:05:59;22.40;62.50
66708;DHT22;53622;0.000;0.000;2023-09-07T04:08:30;22.30;62.20
66708;DHT22;53622;0.000;0.000;2023-09-07T04:11:03;22.30;62.60
66708;DHT22;53622;0.000;0.000;2023-09-07T04:13:33;22.20;62.80
66708;DHT22;53622;0.000;0.000;2023-09-07T04:16:02;22.20;62.70
66708;DHT22;53622;0.000;0.000;2023-09-07T04:18:31;22.10;62.80
66708;DHT22;53622;0.000;0.000;2023-09-07T04:21:06;22.10;62.70
66708;DHT22;53622;0.000;0.000;2023-09-07T04:23:37;22.10;62.70
66708;DHT22;53622;0.000;0.000;2023-09-07T04:26:08;22.10;62.70
66708;DHT22;53622;0.000;0.000;2023-09-07T04:28:38;22.10;62.60
66708;DHT22;53622;0.000;0.000;2023-09-07T04:31:07;22.10;62.60
66708;DHT22;53622;0.000;0.000;2023-09-07T04:33:37;22.10;62.60
66708;DHT22;53622;0.000;0.000;2023-09-07T04:36:09;22.10;62.70
66708;DHT22;53622;0.000;0.000;2023-09-07T04:38:41;22.10;62.70
66708;DHT22;53622;0.000;0.000;2023-09-07T04:41:12;22.10;62.70
66708;DHT22;53622;0.000;0.000;2023-09-07T04:43:42;22.10;62.70
66708;DHT22;53622;0.000;0.000;2023-09-07T04:46:13;22.10;62.60
66708;DHT22;53622;0.000;0.000;2023-09-07T04:48:42;22.10;62.70
66708;DHT22;53622;0.000;0.000;2023-09-07T04:51:11;22.10;62.80
66708;DHT22;53622;0.000;0.000;2023-09-07T04:53:42;22.00;62.80
66708;DHT22;53622;0.000;0.000;2023-09-07T04:56:13;22.10;62.80
66708;DHT22;53622;0.000;0.000;2023-09-07T04:58:42;22.10;63.10
66708;DHT22;53622;0.000;0.000;2023-09-07T05:01:12;22.20;62.90
66708;DHT22;53622;0.000;0.000;2023-09-07T05:03:42;22.30;62.70
66708;DHT22;53622;0.000;0.000;2023-09-07T05:06:11;22.40;62.40
66708;DHT22;53622;0.000;0.000;2023-09-07T05:08:43;22.60;62.60
66708;DHT22;53622;0.000;0.000;2023-09-07T05:11:12;22.60;62.30
66708;DHT22;53622;0.000;0.000;2023-09-07T05:13:41;22.70;62.20
66708;DHT22;53622;0.000;0.000;2023-09-07T05:16:10;22.80;62.10
66708;DHT22;53622;0.000;0.000;2023-09-07T05:18:41;22.90;61.90
66708;DHT22;53622;0.000;0.000;2023-09-07T05:21:12;22.90;61.60
66708;DHT22;53622;0.000;0.000;2023-09-07T05:23:43;22.90;61.50
66708;DHT22;53622;0.000;0.000;2023-09-07T05:26:12;23.00;61.50
66708;DHT22;53622;0.000;0.000;2023-09-07T05:28:41;23.00;61.40
66708;DHT22;53622;0.000;0.000;2023-09-07T05:31:11;23.10;61.40
66708;DHT22;53622;0.000;0.000;2023-09-07T05:33:41;23.10;61.30
66708;DHT22;53622;0.000;0.000;2023-09-07T05:36:10;23.10;61.30
66708;DHT22;53622;0.000;0.000;2023-09-07T05:38:39;23.10;61.50
66708;DHT22;53622;0.000;0.000;2023-09-07T05:41:09;23.10;61.50
66708;DHT22;53622;0.000;0.000;2023-09-07T05:43:38;23.10;61.50
66708;DHT22;53622;0.000;0.000;2023-09-07T05:46:11;23.10;61.60
66708;DHT22;53622;0.000;0.000;2023-09-07T05:48:40;23.10;61.50
66708;DHT22;53622;0.000;0.000;2023-09-07T05:51:09;23.10;61.50
66708;DHT22;53622;0.000;0.000;2023-09-07T05:53:39;23.10;61.50
66708;DHT22;53622;0.000;0.000;2023-09-07T05:56:09;23.10;61.40
66708;DHT22;53622;0.000;0.000;2023-09-07T05:58:38;23.20;61.50
66708;DHT22;53622;0.000;0.000;2023-09-07T06:01:07;23.20;61.40
66708;DHT22;53622;0.000;0.000;2023-09-07T06:03:36;23.20;61.50
66708;DHT22;53622;0.000;0.000;2023-09-07T06:06:07;23.20;61.40
66708;DHT22;53622;0.000;0.000;2023-09-07T06:08:36;23.20;61.40
66708;DHT22;53622;0.000;0.000;2023-09-07T06:11:05;23.20;61.40
66708;DHT22;53622;0.000;0.000;2023-09-07T06:13:36;23.20;61.40
66708;DHT22;53622;0.000;0.000;2023-09-07T06:16:05;23.30;61.50
66708;DHT22;53622;0.000;0.000;2023-09-07T06:18:34;23.30;61.50
66708;DHT22;53622;0.000;0.000;2023-09-07T06:21:03;23.30;61.50
66708;DHT22;53622;0.000;0.000;2023-09-07T06:23:33;23.30;61.50
66708;DHT22;53622;0.000;0.000;2023-09-07T06:26:02;23.30;61.40
66708;DHT22;53622;0.000;0.000;2023-09-07T06:28:32;23.30;61.40
66708;DHT22;53622;0.000;0.000;2023-09-07T06:31:03;23.30;61.40
66708;DHT22;53622;0.000;0.000;2023-09-07T06:33:32;23.30;61.40
66708;DHT22;53622;0.000;0.000;2023-09-07T06:36:01;23.30;61.30
66708;DHT22;53622;0.000;0.000;2023-09-07T06:38:30;23.30;61.30
66708;DHT22;53622;0.000;0.000;2023-09-07T06:41:00;23.30;61.40
66708;DHT22;53622;0.000;0.000;2023-09-07T06:43:29;23.30;61.40
66708;DHT22;53622;0.000;0.000;2023-09-07T06:46:07;23.30;61.40
66708;DHT22;53622;0.000;0.000;2023-09-07T06:48:36;23.30;61.40
66708;DHT22;53622;0.000;0.000;2023-09-07T06:51:06;23.30;61.40
66708;DHT22;53622;0.000;0.000;2023-09-07T06:53:36;23.30;61.40
66708;DHT22;53622;0.000;0.000;2023-09-07T06:56:24;23.40;61.40
66708;DHT22;53622;0.000;0.000;2023-09-07T06:58:54;23.40;61.40
66708;DHT22;53622;0.000;0.000;2023-09-07T07:01:25;23.40;61.50
66708;DHT22;53622;0.000;0.000;2023-09-07T07:03:54;23.40;61.50
66708;DHT22;53622;0.000;0.000;2023-09-07T07:06:26;23.40;61.50
66708;DHT22;53622;0.000;0.000;2023-09-07T07:08:55;23.40;61.50
66708;DHT22;53622;0.000;0.000;2023-09-07T07:11:24;23.40;61.40
66708;DHT22;53622;0.000;0.000;2023-09-07T07:13:53;23.40;61.50
66708;DHT22;53622;0.000;0.000;2023-09-07T07:16:22;23.40;61.40
66708;DHT22;53622;0.000;0.000;2023-09-07T07:18:53;23.40;61.40
66708;DHT22;53622;0.000;0.000;2023-09-07T07:21:22;23.40;61.50
66708;DHT22;53622;0.000;0.000;2023-09-07T07:23:52;23.40;61.40
66708;DHT22;53622;0.000;0.000;2023-09-07T07:26:22;23.40;61.40
66708;DHT22;53622;0.000;0.000;2023-09-07T07:28:51;23.40;61.40
66708;DHT22;53622;0.000;0.000;2023-09-07T07:31:20;23.40;61.40
66708;DHT22;53622;0.000;0.000;2023-09-07T07:33:49;23.40;61.40
66708;DHT22;53622;0.000;0.000;2023-09-07T07:36:20;23.40;61.40
66708;DHT22;53622;0.000;0.000;2023-09-07T07:38:49;23.50;61.50
66708;DHT22;53622;0.000;0.000;2023-09-07T07:41:19;23.50;61.50
66708;DHT22;53622;0.000;0.000;2023-09-07T07:43:48;23.50;61.50
66708;DHT22;53622;0.000;0.000;2023-09-07T07:46:17;23.50;61.50
66708;DHT22;53622;0.000;0.000;2023-09-07T07:48:48;23.50;61.50
66708;DHT22;53622;0.000;0.000;2023-09-07T07:51:17;23.50;61.50
66708;DHT22;53622;0.000;0.000;2023-09-07T07:53:50;23.50;61.50
66708;DHT22;53622;0.000;0.000;2023-09-07T07:56:20;23.50;61.50
66708;DHT22;53622;0.000;0.000;2023-09-07T07:58:51;23.50;61.50
66708;DHT22;53622;0.000;0.000;2023-09-07T08:01:20;23.50;61.50
66708;DHT22;53622;0.000;0.000;2023-09-07T08:03:53;23.50;61.50
66708;DHT22;53622;0.000;0.000;2023-09-07T08:06:23;23.50;61.50
66708;DHT22;53622;0.000;0.000;2023-09-07T08:08:54;23.50;61.60
66708;DHT22;53622;0.000;0.000;2023-09-07T08:11:23;23.50;61.70
66708;DHT22;53622;0.000;0.000;2023-09-07T08:13:54;23.50;61.60
66708;DHT22;53622;0.000;0.000;2023-09-07T08:16:23;23.50;61.60
66708;DHT22;53622;0.000;0.000;2023-09-07T08:18:52;23.50;61.60
66708;DHT22;53622;0.000;0.000;2023-09-07T08:21:21;23.50;61.60
66708;DHT22;53622;0.000;0.000;2023-09-07T08:23:50;23.50;61.60
66708;DHT22;53622;0.000;0.000;2023-09-07T08:26:22;23.60;61.60
66708;DHT22;53622;0.000;0.000;2023-09-07T08:28:51;23.60;61.70
66708;DHT22;53622;0.000;0.000;2023-09-07T08:31:20;23.60;61.70
66708;DHT22;53622;0.000;0.000;2023-09-07T08:33:50;23.60;61.70
66708;DHT22;53622;0.000;0.000;2023-09-07T08:36:19;23.60;61.70
66708;DHT22;53622;0.000;0.000;2023-09-07T08:38:50;23.60;61.70
66708;DHT22;53622;0.000;0.000;2023-09-07T08:41:23;23.60;61.70
66708;DHT22;53622;0.000;0.000;2023-09-07T08:43:53;23.60;61.60
66708;DHT22;53622;0.000;0.000;2023-09-07T08:46:23;23.60;61.60
66708;DHT22;53622;0.000;0.000;2023-09-07T08:48:52;23.60;61.70
66708;DHT22;53622;0.000;0.000;2023-09-07T08:51:25;23.60;61.60
66708;DHT22;53622;0.000;0.000;2023-09-07T08:53:55;23.60;61.60
66708;DHT22;53622;0.000;0.000;2023-09-07T08:56:26;23.60;61.60
66708;DHT22;53622;0.000;0.000;2023-09-07T08:58:55;23.60;61.60
66708;DHT22;53622;0.000;0.000;2023-09-07T09:01:24;23.60;61.60
66708;DHT22;53622;0.000;0.000;2023-09-07T09:03:53;23.60;61.70
66708;DHT22;53622;0.000;0.000;2023-09-07T09:06:22;23.70;61.70
66708;DHT22;53622;0.000;0.000;2023-09-07T09:08:55;23.70;61.70
66708;DHT22;53622;0.000;0.000;2023-09-07T09:11:26;23.70;61.70
66708;DHT22;53622;0.000;0.000;2023-09-07T09:13:56;23.70;61.70
66708;DHT22;53622;0.000;0.000;2023-09-07T09:16:25;23.70;61.70
66708;DHT22;53622;0.000;0.000;2023-09-07T09:18:55;23.70;61.70
66708;DHT22;53622;0.000;0.000;2023-09-07T09:21:26;23.70;61.70
66708;DHT22;53622;0.000;0.000;2023-09-07T09:23:56;23.70;61.70
66708;DHT22;53622;0.000;0.000;2023-09-07T09:26:29;23.70;61.70
66708;DHT22;53622;0.000;0.000;2023-09-07T09:29:00;23.70;61.70
66708;DHT22;53622;0.000;0.000;2023-09-07T09:31:30;23.70;61.70
66708;DHT22;53622;0.000;0.000;2023-09-07T09:33:59;23.70;61.70
66708;DHT22;53622;0.000;0.000;2023-09-07T09:36:33;23.70;61.70
66708;DHT22;53622;0.000;0.000;2023-09-07T09:39:02;23.70;61.70
66708;DHT22;53622;0.000;0.000;2023-09-07T09:41:34;23.70;61.80
66708;DHT22;53622;0.000;0.000;2023-09-07T09:44:04;23.70;61.80
66708;DHT22;53622;0.000;0.000;2023-09-07T09:46:34;23.70;61.80
66708;DHT22;53622;0.000;0.000;2023-09-07T09:49:04;23.70;61.80
66708;DHT22;53622;0.000;0.000;2023-09-07T09:51:34;23.70;61.80
66708;DHT22;53622;0.000;0.000;2023-09-07T09:54:03;23.70;61.80
66708;DHT22;53622;0.000;0.000;2023-09-07T09:56:34;23.70;61.80
66708;DHT22;53622;0.000;0.000;2023-09-07T09:59:04;23.80;61.90
66708;DHT22;53622;0.000;0.000;2023-09-07T10:01:38;23.80;61.90
66708;DHT22;53622;0.000;0.000;2023-09-07T10:04:12;23.80;61.90
66708;DHT22;53622;0.000;0.000;2023-09-07T10:06:53;23.80;61.90
66708;DHT22;53622;0.000;0.000;2023-09-07T10:09:22;23.80;61.90
66708;DHT22;53622;0.000;0.000;2023-09-07T10:11:53;23.70;61.90
66708;DHT22;53622;0.000;0.000;2023-09-07T10:14:23;23.80;62.00
66708;DHT22;53622;0.000;0.000;2023-09-07T10:16:53;23.80;62.00
66708;DHT22;53622;0.000;0.000;2023-09-07T10:19:27;23.80;62.00
66708;DHT22;53622;0.000;0.000;2023-09-07T10:21:56;23.80;62.00
66708;DHT22;53622;0.000;0.000;2023-09-07T10:24:26;23.80;62.00
66708;DHT22;53622;0.000;0.000;2023-09-07T10:27:04;23.80;62.10
66708;DHT22;53622;0.000;0.000;2023-09-07T10:29:41;23.80;62.10
66708;DHT22;53622;0.000;0.000;2023-09-07T10:32:10;23.80;62.00
66708;DHT22;53622;0.000;0.000;2023-09-07T10:34:42;23.80;62.00
66708;DHT22;53622;0.000;0.000;2023-09-07T10:37:12;23.80;62.00
66708;DHT22;53622;0.000;0.000;2023-09-07T10:39:43;23.80;62.00
66708;DHT22;53622;0.000;0.000;2023-09-07T10:42:21;23.80;62.10
66708;DHT22;53622;0.000;0.000;2023-09-07T10:44:52;23.80;62.10
66708;DHT22;53622;0.000;0.000;2023-09-07T10:47:21;23.80;62.20
66708;DHT22;53622;0.000;0.000;2023-09-07T10:49:50;23.80;62.10
66708;DHT22;53622;0.000;0.000;2023-09-07T10:52:19;23.80;62.10
66708;DHT22;53622;0.000;0.000;2023-09-07T10:54:56;23.80;62.10
66708;DHT22;53622;0.000;0.000;2023-09-07T10:57:27;23.90;62.30
66708;DHT22;53622;0.000;0.000;2023-09-07T10:59:56;23.90;62.30
66708;DHT22;53622;0.000;0.000;2023-09-07T11:02:24;23.90;62.30
66708;DHT22;53622;0.000;0.000;2023-09-07T11:04:54;23.90;62.30
66708;DHT22;53622;0.000;0.000;2023-09-07T11:07:23;23.90;62.20
66708;DHT22;53622;0.000;0.000;2023-09-07T11:09:52;23.90;62.30
66708;DHT22;53622;0.000;0.000;2023-09-07T11:12:21;23.90;62.30
66708;DHT22;53622;0.000;0.000;2023-09-07T11:14:53;23.90;62.30
66708;DHT22;53622;0.000;0.000;2023-09-07T11:17:26;23.90;62.30
66708;DHT22;53622;0.000;0.000;2023-09-07T11:19:56;23.90;62.30
66708;DHT22;53622;0.000;0.000;2023-09-07T11:22:25;23.90;62.30
66708;DHT22;53622;0.000;0.000;2023-09-07T11:24:54;23.90;62.30
66708;DHT22;53622;0.000;0.000;2023-09-07T11:27:24;23.90;62.30
66708;DHT22;53622;0.000;0.000;2023-09-07T11:29:55;23.90;62.30
66708;DHT22;53622;0.000;0.000;2023-09-07T11:32:32;23.90;62.30
66708;DHT22;53622;0.000;0.000;2023-09-07T11:35:01;23.90;62.30
66708;DHT22;53622;0.000;0.000;2023-09-07T11:37:34;23.90;62.30
66708;DHT22;53622;0.000;0.000;2023-09-07T11:40:04;23.90;62.30
66708;DHT22;53622;0.000;0.000;2023-09-07T11:42:40;23.90;62.40
66708;DHT22;53622;0.000;0.000;2023-09-07T11:45:11;24.00;62.40
66708;DHT22;53622;0.000;0.000;2023-09-07T11:47:41;24.00;63.20
66708;DHT22;53622;0.000;0.000;2023-09-07T11:50:10;24.00;62.40
66708;DHT22;53622;0.000;0.000;2023-09-07T11:52:39;24.00;62.40
66708;DHT22;53622;0.000;0.000;2023-09-07T11:55:08;24.00;62.50
66708;DHT22;53622;0.000;0.000;2023-09-07T11:57:38;24.00;62.40
66708;DHT22;53622;0.000;0.000;2023-09-07T12:00:09;24.00;62.40
66708;DHT22;53622;0.000;0.000;2023-09-07T12:02:40;24.00;62.40
66708;DHT22;53622;0.000;0.000;2023-09-07T12:05:09;24.00;62.40
66708;DHT22;53622;0.000;0.000;2023-09-07T12:07:42;24.00;62.40
66708;DHT22;53622;0.000;0.000;2023-09-07T12:10:12;24.00;62.40
66708;DHT22;53622;0.000;0.000;2023-09-07T12:12:41;24.00;62.50
66708;DHT22;53622;0.000;0.000;2023-09-07T12:15:11;24.00;62.40
66708;DHT22;53622;0.000;0.000;2023-09-07T12:17:41;24.00;62.40
66708;DHT22;53622;0.000;0.000;2023-09-07T12:20:11;24.00;62.40
66708;DHT22;53622;0.000;0.000;2023-09-07T12:22:42;24.00;62.40
66708;DHT22;53622;0.000;0.000;2023-09-07T12:25:10;24.00;62.40
66708;DHT22;53622;0.000;0.000;2023-09-07T12:27:46;24.00;62.40
66708;DHT22;53622;0.000;0.000;2023-09-07T12:30:18;24.00;62.40
66708;DHT22;53622;0.000;0.000;2023-09-07T12:32:50;24.00;62.40
66708;DHT22;53622;0.000;0.000;2023-09-07T12:35:20;24.00;62.40
66708;DHT22;53622;0.000;0.000;2023-09-07T12:37:49;24.00;62.40
66708;DHT22;53622;0.000;0.000;2023-09-07T12:40:18;24.10;62.50
66708;DHT22;53622;0.000;0.000;2023-09-07T12:42:47;24.10;62.40
66708;DHT22;53622;0.000;0.000;2023-09-07T12:45:16;24.10;62.40
66708;DHT22;53622;0.000;0.000;2023-09-07T12:47:45;24.10;62.50
66708;DHT22;53622;0.000;0.000;2023-09-07T12:50:15;24.10;62.40
66708;DHT22;53622;0.000;0.000;2023-09-07T12:52:44;24.10;62.40
66708;DHT22;53622;0.000;0.000;2023-09-07T12:55:13;24.10;62.40
66708;DHT22;53622;0.000;0.000;2023-09-07T12:57:43;24.10;62.40
66708;DHT22;53622;0.000;0.000;2023-09-07T13:00:13;24.10;62.40
66708;DHT22;53622;0.000;0.000;2023-09-07T13:02:42;24.10;62.50
66708;DHT22;53622;0.000;0.000;2023-09-07T13:05:11;24.10;62.50
66708;DHT22;53622;0.000;0.000;2023-09-07T13:07:42;24.10;62.40
66708;DHT22;53622;0.000;0.000;2023-09-07T13:10:11;24.10;62.50
66708;DHT22;53622;0.000;0.000;2023-09-07T13:12:41;24.10;62.50
66708;DHT22;53622;0.000;0.000;2023-09-07T13:15:10;24.10;62.40
66708;DHT22;53622;0.000;0.000;2023-09-07T13:17:39;24.10;62.40
66708;DHT22;53622;0.000;0.000;2023-09-07T13:20:09;24.10;62.40
66708;DHT22;53622;0.000;0.000;2023-09-07T13:22:41;24.10;62.40
66708;DHT22;53622;0.000;0.000;2023-09-07T13:25:10;24.10;63.20
66708;DHT22;53622;0.000;0.000;2023-09-07T13:27:40;24.10;62.40
66708;DHT22;53622;0.000;0.000;2023-09-07T13:30:09;24.10;62.40
66708;DHT22;53622;0.000;0.000;2023-09-07T13:32:39;24.10;62.40
66708;DHT22;53622;0.000;0.000;2023-09-07T13:35:08;24.10;62.40
66708;DHT22;53622;0.000;0.000;2023-09-07T13:37:37;24.10;62.40
66708;DHT22;53622;0.000;0.000;2023-09-07T13:40:08;24.10;62.40
66708;DHT22;53622;0.000;0.000;2023-09-07T13:42:38;24.10;62.40
66708;DHT22;53622;0.000;0.000;2023-09-07T13:45:08;24.10;62.50
66708;DHT22;53622;0.000;0.000;2023-09-07T13:47:37;24.20;62.50
66708;DHT22;53622;0.000;0.000;2023-09-07T13:50:07;24.20;62.50
66708;DHT22;53622;0.000;0.000;2023-09-07T13:52:36;24.20;62.50
66708;DHT22;53622;0.000;0.000;2023-09-07T13:55:08;24.20;62.50
66708;DHT22;53622;0.000;0.000;2023-09-07T13:57:37;24.20;62.50
66708;DHT22;53622;0.000;0.000;2023-09-07T14:00:06;24.20;62.50
66708;DHT22;53622;0.000;0.000;2023-09-07T14:02:35;24.20;62.60
66708;DHT22;53622;0.000;0.000;2023-09-07T14:05:04;24.20;62.50
66708;DHT22;53622;0.000;0.000;2023-09-07T14:07:34;24.20;62.50
66708;DHT22;53622;0.000;0.000;2023-09-07T14:10:04;24.20;62.50
66708;DHT22;53622;0.000;0.000;2023-09-07T14:12:34;24.20;62.60
66708;DHT22;53622;0.000;0.000;2023-09-07T14:15:03;24.20;62.60
66708;DHT22;53622;0.000;0.000;2023-09-07T14:17:33;24.20;62.50
66708;DHT22;53622;0.000;0.000;2023-09-07T14:20:02;24.20;62.60
66708;DHT22;53622;0.000;0.000;2023-09-07T14:22:31;24.20;62.60
66708;DHT22;53622;0.000;0.000;2023-09-07T14:25:00;24.20;62.60
66708;DHT22;53622;0.000;0.000;2023-09-07T14:27:30;24.20;62.60
66708;DHT22;53622;0.000;0.000;2023-09-07T14:30:01;24.20;62.60
66708;DHT22;53622;0.000;0.000;2023-09-07T14:32:30;24.20;62.50
66708;DHT22;53622;0.000;0.000;2023-09-07T14:34:59;24.20;62.50
66708;DHT22;53622;0.000;0.000;2023-09-07T14:37:28;24.20;62.60
66708;DHT22;53622;0.000;0.000;2023-09-07T14:39:57;24.20;62.60
66708;DHT22;53622;0.000;0.000;2023-09-07T14:42:27;24.20;62.50
66708;DHT22;53622;0.000;0.000;2023-09-07T14:44:55;24.30;62.60
66708;DHT22;53622;0.000;0.000;2023-09-07T14:47:29;24.20;62.50
66708;DHT22;53622;0.000;0.000;2023-09-07T14:49:58;24.20;62.50
66708;DHT22;53622;0.000;0.000;2023-09-07T14:52:27;24.20;62.50
66708;DHT22;53622;0.000;0.000;2023-09-07T14:54:56;24.30;62.60
66708;DHT22;53622;0.000;0.000;2023-09-07T14:57:24;24.30;62.80
66708;DHT22;53622;0.000;0.000;2023-09-07T14:59:53;24.40;62.60
66708;DHT22;53622;0.000;0.000;2023-09-07T15:02:22;24.40;62.50
66708;DHT22;53622;0.000;0.000;2023-09-07T15:04:53;24.40;62.60
66708;DHT22;53622;0.000;0.000;2023-09-07T15:07:22;24.40;62.70
66708;DHT22;53622;0.000;0.000;2023-09-07T15:09:52;24.40;62.70
66708;DHT22;53622;0.000;0.000;2023-09-07T15:12:21;24.40;62.70
66708;DHT22;53622;0.000;0.000;2023-09-07T15:14:51;24.40;62.80
66708;DHT22;53622;0.000;0.000;2023-09-07T15:17:20;24.40;62.80
66708;DHT22;53622;0.000;0.000;2023-09-07T15:19:49;24.40;62.90
66708;DHT22;53622;0.000;0.000;2023-09-07T15:22:20;24.40;63.00
66708;DHT22;53622;0.000;0.000;2023-09-07T15:24:49;24.40;63.10
66708;DHT22;53622;0.000;0.000;2023-09-07T15:27:18;24.40;63.30
66708;DHT22;53622;0.000;0.000;2023-09-07T15:29:47;24.30;63.30
66708;DHT22;53622;0.000;0.000;2023-09-07T15:32:16;24.40;63.30
66708;DHT22;53622;0.000;0.000;2023-09-07T15:34:45;24.40;63.40
66708;DHT22;53622;0.000;0.000;2023-09-07T15:37:15;24.30;63.40
66708;DHT22;53622;0.000;0.000;2023-09-07T15:39:45;24.30;63.40
66708;DHT22;53622;0.000;0.000;2023-09-07T15:42:14;24.30;63.30
66708;DHT22;53622;0.000;0.000;2023-09-07T15:44:43;24.30;63.40
66708;DHT22;53622;0.000;0.000;2023-09-07T15:47:15;24.30;63.30
66708;DHT22;53622;0.000;0.000;2023-09-07T15:49:44;24.30;63.50
66708;DHT22;53622;0.000;0.000;2023-09-07T15:52:16;24.30;63.60
66708;DHT22;53622;0.000;0.000;2023-09-07T15:54:47;24.30;63.70
66708;DHT22;53622;0.000;0.000;2023-09-07T15:57:16;24.40;63.70
66708;DHT22;53622;0.000;0.000;2023-09-07T15:59:45;24.40;63.50
66708;DHT22;53622;0.000;0.000;2023-09-07T16:02:14;24.40;63.30